Дата Пункты Температура Давл., мм. Влажн., % Ветер Погодные явления
Воздуха Воды Направл. Скорость
15.01.19 08:00 Одесса -2.0 2.0 751 72 Пн-З 3 20 ГОДИН
15.01.19 05:00 Одесса -2.0 2.0 751 72 Пн-З 3 17 ГОДИН
15.01.19 02:00 Одесса -1.0 2.0 750 68 Пн-З 2 14 ГОДИН
15.01.19 05:00 Одесса 2.0 2.0 746 74 Пн-З 3 05 ГОДИН
15.01.19 02:00 Одесса 1.0 2.0 745 84 З 1 02 ГОДИНИ
14.01.19 11:00 Одесса 1.0 2.0 744 82 З 3 23 ГОДИНИ
14.01.19 08:00 Одесса 3.0 2.0 743 75 З 2 20 ГОДИН
14.01.19 05:00 Одесса 4.0 2.0 742 73 Пд-З 3 17 ГОДИН
14.01.19 02:00 Одесса 5.0 2.0 741 72 Пд-З 4 14 ГОДИН
14.01.19 11:00 Одесса 2.0 2.0 743 85 Пд-З 4 11 ГОДИН
14.01.19 05:00 Одесса 1.0 2.0 745 82 Пд-З 4 05 ГОДИН
14.01.19 02:00 Одесса 1.0 2.0 747 68 Пд-З 4 02 ГОДИНИ
13.01.19 02:00 Одесса 3.0 2.0 752 54 Пд-З 2 14 ГОДИН
13.01.19 11:00 Одесса 1.0 2.0 754 69 З 2 11 ГОДИН
13.01.19 08:00 Одесса -1.0 2.0 754 82 З 2 08 ГОДИН
13.01.19 05:00 Одесса -1.0 2.0 754 84 З 3 05 ГОДИН
13.01.19 02:00 Одесса -1.0 2.0 754 84 З 3 02 ГОДИНИ
12.01.19 08:00 Одесса -2.0 2.0 754 87 З 2 20 ГОДИН
12.01.19 05:00 Одесса -2.0 2.0 754 87 З 2 17 ГОДИН
12.01.19 02:00 Одесса -2.0 2.0 754 88 З 4 14 ГОДИН
Количество строк
1 2 3 4 5 6 7 8 9 10
Page 2 of 448